ALC weather

Alicante International Airport
Alicante, Valencia, Spain

Public forecast

Using degrees Celsius for public forecast. Weather courtesy of forecast.io.

METAR (pilot weather report)

Retrieved 2019/03/23 22:00 UTC (16 minutes ago):

LEAL 232200Z 02003KT CAVOK 14/10 Q1025 NOSIG

TAF (pilot weather forecast)

Retrieved 2019/03/23 18:27 UTC (4 hours ago):

TAF TAF LEAL 231700Z 2318/2418 09010KT 9999 FEW050 TX20/2413Z TN10/2406Z BECMG 2318/2321 36007KT BECMG 2408/2410 09010KT